Bixby, Oklahoma
Current Conditions -  °F | °C
As of 3:53 PM on Wednesday 28 Jan 2015 (Local Time) from KRVS Reporting Station
Clear Clear  
Wind Chill: 77°   Ceiling: Unl
Heat Index: 77°   Visibility: 10mi
Dew Point: 39°   Wind: 14mph
Humidity: 25%   Direction: 200°SSW
Pressure: 29.84"   Gusts: 26mph
Location:  35.94°N, 95.88°W
Report Text: KRVS 282153Z 20012G23KT 10SM CLR 25/04 A2984 RMK AO2 SLP110 T02500039
Loading
Personal Weather Stations






























Interactive Weather Map New forecast layout! Learn more

10-Day Weather Forecast

Advertisements
Track Severe Weather on mobile